Time;durP1;ratioP1;P1;durP2;ratioP2;P2;SDS_P1;SDS_P2;PMS_P1;PMS_P2;Temp;Humidity;BMP_temperature;BMP_pressure;BME280_temperature;BME280_humidity;BME280_pressure;Samples;Min_cycle;Max_cycle;Signal;HPM_P1;HPM_P2
2023/06/18 00:00:32;;;;;;;13.00;7.30;;;19.20;99.90;;;;;;1887125;75;25645;-89
2023/06/18 00:03:21;;;;;;;10.43;7.23;;;19.20;99.90;;;;;;1902129;75;25237;-90
2023/06/18 00:06:09;;;;;;;11.17;7.37;;;19.20;99.90;;;;;;1903154;75;25183;-89
2023/06/18 00:12:02;;;;;;;11.63;7.67;;;19.20;99.90;;;;;;1945193;72;27107;-91
2023/06/18 00:17:46;;;;;;;12.13;7.43;;;19.10;99.90;;;;;;1957700;72;27110;-90
2023/06/18 00:20:36;;;;;;;9.83;7.60;;;19.10;99.90;;;;;;1934961;73;25275;-90
2023/06/18 00:23:26;;;;;;;15.40;7.77;;;19.10;99.90;;;;;;1934339;73;25213;-90
2023/06/18 00:26:15;;;;;;;14.70;7.80;;;19.00;99.90;;;;;;1923757;73;25718;-90
2023/06/18 00:29:06;;;;;;;11.97;8.03;;;19.00;99.90;;;;;;1920505;73;25246;-90
2023/06/18 00:31:58;;;;;;;19.27;7.83;;;19.00;99.90;;;;;;1928096;73;25571;-88
2023/06/18 00:34:53;;;;;;;15.00;7.47;;;19.10;99.90;;;;;;1927687;73;25709;-90
2023/06/18 00:55:36;;;;;;;9.97;7.73;;;19.50;99.90;;;;;;1949639;72;27057;-90
2023/06/18 00:58:31;;;;;;;11.70;7.50;;;19.50;99.90;;;;;;1883996;75;25249;-90
2023/06/18 01:03:59;;;;;;;10.57;7.03;;;19.60;99.90;;;;;;1923747;72;27464;-90
2023/06/18 01:06:57;;;;;;;15.03;7.57;;;19.70;99.90;;;;;;1870473;76;25233;-89
2023/06/18 01:09:53;;;;;;;10.50;7.47;;;19.70;99.90;;;;;;1855285;77;25642;-89
2023/06/18 01:15:22;;;;;;;13.57;7.87;;;19.50;99.90;;;;;;1886929;74;27669;-90
2023/06/18 01:18:14;;;;;;;11.30;7.83;;;19.50;99.90;;;;;;1828283;77;25748;-90
2023/06/18 01:21:06;;;;;;;9.50;7.40;;;19.50;99.90;;;;;;1826350;77;25296;-90
2023/06/18 01:24:00;;;;;;;11.53;8.33;;;19.50;99.90;;;;;;1839333;77;25282;-90
2023/06/18 01:26:51;;;;;;;16.27;7.97;;;19.40;99.90;;;;;;1840667;76;25886;-90
2023/06/18 01:29:42;;;;;;;18.47;8.17;;;19.40;99.90;;;;;;1835761;77;25707;-90
2023/06/18 01:35:25;;;;;;;13.37;7.73;;;19.40;99.90;;;;;;1959122;72;27073;-90
2023/06/18 01:38:30;;;;;;;12.70;7.60;;;19.40;99.90;;;;;;1943365;73;25257;-89
2023/06/18 01:44:12;;;;;;;15.77;7.80;;;19.50;99.90;;;;;;1915675;72;27083;-90
2023/06/18 01:52:33;;;;;;;11.50;7.70;;;19.50;99.90;;;;;;1946030;72;27573;-89
2023/06/18 01:58:04;;;;;;;12.80;7.70;;;19.50;99.90;;;;;;1923016;72;27097;-89
2023/06/18 02:00:53;;;;;;;14.10;7.53;;;19.60;99.90;;;;;;1869901;76;25341;-89
2023/06/18 02:03:42;;;;;;;12.13;8.17;;;19.60;99.90;;;;;;1812101;78;25307;-89
2023/06/18 02:06:31;;;;;;;12.50;7.90;;;19.50;99.90;;;;;;1913635;73;25666;-89
2023/06/18 02:09:22;;;;;;;15.70;8.40;;;19.50;99.90;;;;;;1908700;75;25260;-89
2023/06/18 02:12:11;;;;;;;13.30;8.87;;;19.50;99.90;;;;;;1874728;76;25269;-89
2023/06/18 02:15:00;;;;;;;15.03;8.10;;;19.40;99.90;;;;;;1841375;77;25717;-89
2023/06/18 02:17:50;;;;;;;12.87;8.50;;;19.30;99.90;;;;;;1862423;76;25198;-89
2023/06/18 02:20:40;;;;;;;11.47;7.93;;;19.30;99.90;;;;;;1896318;74;25690;-89
2023/06/18 02:23:28;;;;;;;12.13;8.13;;;19.20;99.90;;;;;;1892308;75;25172;-89
2023/06/18 02:29:14;;;;;;;18.37;8.63;;;19.10;99.90;;;;;;1999498;71;26990;-90
2023/06/18 02:32:05;;;;;;;12.80;8.33;;;19.10;99.90;;;;;;1946813;73;25166;-89
2023/06/18 02:34:55;;;;;;;12.73;8.17;;;19.10;99.90;;;;;;1925409;73;25239;-90
2023/06/18 02:40:29;;;;;;;11.50;8.40;;;19.00;99.90;;;;;;1924367;74;27041;-90
2023/06/18 02:48:59;;;;;;;13.77;8.77;;;19.00;99.90;;;;;;2024627;70;27022;-89
2023/06/18 02:51:47;;;;;;;13.70;8.10;;;19.00;99.90;;;;;;2003409;71;25200;-89
2023/06/18 02:54:37;;;;;;;11.63;7.60;;;19.00;99.90;;;;;;2082810;68;25505;-89
2023/06/18 02:57:25;;;;;;;12.87;7.87;;;19.10;99.90;;;;;;2016740;71;25304;-89
2023/06/18 03:00:16;;;;;;;12.77;7.93;;;19.10;99.90;;;;;;2008161;71;25184;-89
2023/06/18 03:03:06;;;;;;;14.03;8.83;;;19.10;99.90;;;;;;2071560;68;25851;-89
2023/06/18 03:05:55;;;;;;;10.97;7.47;;;19.10;99.90;;;;;;2070899;68;25320;-90
2023/06/18 03:08:46;;;;;;;12.40;8.13;;;19.10;99.90;;;;;;2004544;71;25216;-90
2023/06/18 03:11:36;;;;;;;11.67;8.20;;;19.10;99.90;;;;;;2084625;68;25261;-90
2023/06/18 03:17:38;;;;;;;12.37;7.53;;;18.90;99.90;;;;;;1996115;71;27035;-89
2023/06/18 03:20:28;;;;;;;11.80;8.03;;;18.80;99.90;;;;;;1954321;72;25879;-90
2023/06/18 03:23:17;;;;;;;9.87;7.20;;;18.80;99.90;;;;;;2033213;69;26465;-90
2023/06/18 03:28:58;;;;;;;13.90;7.90;;;18.70;99.90;;;;;;1966172;72;27638;-90
2023/06/18 03:34:42;;;;;;;12.83;7.63;;;18.80;99.90;;;;;;1950032;72;27008;-90
2023/06/18 03:37:31;;;;;;;11.20;8.00;;;18.90;99.90;;;;;;1932595;73;25179;-89
2023/06/18 03:40:21;;;;;;;10.73;7.80;;;18.80;99.90;;;;;;1918797;73;25218;-89
2023/06/18 03:43:10;;;;;;;11.27;7.60;;;18.80;99.90;;;;;;1911141;73;25300;-90
2023/06/18 03:45:58;;;;;;;13.40;7.80;;;18.80;99.90;;;;;;1916028;74;25359;-89
2023/06/18 03:48:47;;;;;;;12.63;7.70;;;18.80;99.90;;;;;;1887014;75;25244;-91
2023/06/18 03:51:37;;;;;;;11.07;7.80;;;18.80;99.90;;;;;;1896335;74;25268;-89
2023/06/18 03:54:26;;;;;;;13.40;8.10;;;18.80;99.90;;;;;;1876764;75;25240;-90
2023/06/18 03:59:57;;;;;;;12.87;8.03;;;18.90;99.90;;;;;;1939287;72;27046;-89
2023/06/18 04:02:46;;;;;;;15.03;8.00;;;19.00;99.90;;;;;;1899816;75;25292;-89
2023/06/18 04:08:28;;;;;;;12.10;8.23;;;19.00;99.90;;;;;;1952656;72;26915;-89
2023/06/18 04:11:17;;;;;;;12.03;8.23;;;18.90;99.90;;;;;;1948355;73;25743;-89
2023/06/18 04:14:05;;;;;;;11.70;8.00;;;18.90;99.90;;;;;;1945385;73;25267;-89
2023/06/18 04:19:34;;;;;;;12.10;8.20;;;18.90;99.90;;;;;;1945711;72;27370;-89
2023/06/18 04:22:23;;;;;;;12.27;8.37;;;18.90;99.90;;;;;;1890853;75;25291;-89
2023/06/18 04:25:12;;;;;;;13.07;8.00;;;19.00;99.90;;;;;;1906677;75;25731;-89
2023/06/18 04:28:01;;;;;;;11.83;8.10;;;18.90;99.90;;;;;;1914268;75;25224;-90
2023/06/18 04:30:50;;;;;;;11.63;7.67;;;18.80;99.90;;;;;;1899362;75;25226;-89
2023/06/18 04:33:54;;;;;;;14.27;8.30;;;18.70;99.90;;;;;;1907649;75;25173;-89
2023/06/18 04:36:43;;;;;;;15.23;8.23;;;18.70;99.90;;;;;;1891806;74;25221;-89
2023/06/18 04:39:31;;;;;;;12.23;8.53;;;18.70;99.90;;;;;;1867927;76;25243;-89
2023/06/18 04:45:12;;;;;;;17.83;8.50;;;18.80;99.90;;;;;;1952464;72;27012;-89
2023/06/18 04:48:02;;;;;;;13.87;8.00;;;18.70;99.90;;;;;;1928642;73;25190;-89
2023/06/18 04:50:53;;;;;;;13.00;8.53;;;18.60;99.90;;;;;;1943869;73;25265;-89
2023/06/18 04:53:43;;;;;;;14.43;8.80;;;18.60;99.90;;;;;;1925228;73;25748;-89
2023/06/18 04:59:54;;;;;;;13.80;8.97;;;18.60;99.90;;;;;;1991926;71;26784;-88
2023/06/18 05:02:45;;;;;;;13.43;8.70;;;18.50;99.90;;;;;;1961215;72;25242;-88
2023/06/18 05:08:19;;;;;;;15.93;8.80;;;18.40;99.90;;;;;;1930813;72;27506;-89
2023/06/18 05:11:08;;;;;;;13.83;8.70;;;18.40;99.90;;;;;;1905051;74;25251;-89
2023/06/18 05:13:56;;;;;;;12.60;8.90;;;18.40;99.90;;;;;;1917424;74;25247;-89
2023/06/18 05:16:45;;;;;;;14.07;8.10;;;18.40;99.90;;;;;;1899873;73;25292;-89
2023/06/18 05:19:34;;;;;;;13.27;9.07;;;18.40;99.90;;;;;;1915337;74;25288;-89
2023/06/18 05:22:24;;;;;;;15.93;8.77;;;18.30;99.90;;;;;;1896749;74;25235;-89
2023/06/18 05:25:12;;;;;;;14.80;9.03;;;18.20;99.90;;;;;;1898801;74;25238;-89
2023/06/18 05:28:02;;;;;;;12.63;8.50;;;18.20;99.90;;;;;;1897407;74;26586;-90
2023/06/18 05:30:51;;;;;;;14.30;9.43;;;18.20;99.90;;;;;;1918701;74;25283;-89
2023/06/18 05:33:40;;;;;;;16.83;8.90;;;18.30;99.90;;;;;;1912141;73;25198;-90
2023/06/18 05:36:29;;;;;;;15.97;9.00;;;18.30;99.90;;;;;;1906525;73;25243;-90
2023/06/18 05:41:57;;;;;;;13.87;9.47;;;18.20;99.90;;;;;;1933463;72;27575;-89
2023/06/18 05:44:47;;;;;;;14.03;9.07;;;18.20;99.90;;;;;;1877536;75;25764;-90
2023/06/18 05:47:35;;;;;;;17.70;9.67;;;18.20;99.90;;;;;;1832957;77;25199;-89
2023/06/18 06:03:52;;;;;;;21.23;11.27;;;18.00;99.90;;;;;;1934816;72;26958;-89
2023/06/18 06:09:33;;;;;;;17.23;10.83;;;17.90;99.90;;;;;;1959428;72;27009;-90
2023/06/18 06:12:22;;;;;;;18.27;10.17;;;18.00;99.90;;;;;;1935935;72;25337;-90
2023/06/18 06:15:11;;;;;;;19.23;10.57;;;17.90;99.90;;;;;;1946616;72;25675;-91
2023/06/18 06:18:01;;;;;;;17.30;10.30;;;18.00;99.90;;;;;;1934805;73;25291;-90
2023/06/18 06:20:51;;;;;;;17.50;10.07;;;18.00;99.90;;;;;;1939959;73;25754;-90
2023/06/18 06:23:40;;;;;;;17.13;10.43;;;18.00;99.90;;;;;;1938922;73;25240;-90
2023/06/18 06:36:02;;;;;;;16.47;9.93;;;18.00;99.90;;;;;;1937884;72;26964;-90
2023/06/18 06:46:48;;;;;;;16.07;11.00;;;18.00;99.90;;;;;;2077788;68;27601;-90
2023/06/18 06:49:39;;;;;;;17.17;10.57;;;18.00;99.90;;;;;;1995454;70;25260;-90
2023/06/18 06:52:39;;;;;;;16.47;10.53;;;18.10;99.90;;;;;;2028262;70;25284;-89
2023/06/18 06:58:44;;;;;;;17.10;10.57;;;18.10;99.90;;;;;;1941292;72;27117;-90
2023/06/18 07:01:55;;;;;;;17.87;10.97;;;18.10;99.90;;;;;;1943024;73;25173;-89
2023/06/18 07:04:51;;;;;;;14.47;10.17;;;18.00;99.90;;;;;;1916370;75;25295;-89
2023/06/18 07:07:45;;;;;;;15.10;9.60;;;18.00;99.90;;;;;;1950004;73;25236;-89
2023/06/18 07:10:35;;;;;;;20.13;11.10;;;17.90;99.90;;;;;;1923695;73;25761;-90
2023/06/18 07:13:25;;;;;;;17.20;9.60;;;17.80;99.90;;;;;;1920641;73;25784;-90
2023/06/18 07:16:24;;;;;;;16.30;10.43;;;17.80;99.90;;;;;;1923752;73;25172;-90
2023/06/18 07:19:15;;;;;;;19.00;10.53;;;17.60;99.90;;;;;;1938832;73;25275;-90
2023/06/18 07:22:07;;;;;;;16.67;10.53;;;17.50;99.90;;;;;;1940185;73;25251;-90
2023/06/18 07:24:56;;;;;;;18.53;9.47;;;17.60;99.90;;;;;;1905738;73;25813;-90
2023/06/18 07:27:45;;;;;;;17.97;10.03;;;17.40;99.90;;;;;;1937679;73;25662;-90
2023/06/18 07:30:36;;;;;;;15.03;9.93;;;17.30;99.90;;;;;;1916752;73;25201;-90
2023/06/18 07:33:25;;;;;;;18.80;9.73;;;17.30;99.90;;;;;;1917729;73;25212;-90
2023/06/18 07:36:14;;;;;;;22.27;11.23;;;17.20;99.90;;;;;;1891993;75;25649;-89
2023/06/18 07:39:03;;;;;;;17.97;11.00;;;17.30;99.90;;;;;;1942437;73;25306;-90
2023/06/18 07:56:41;;;;;;;18.27;11.03;;;17.20;99.90;;;;;;2006768;71;26082;-90
2023/06/18 08:02:26;;;;;;;17.33;10.37;;;17.30;99.90;;;;;;1947463;72;27645;-90
2023/06/18 08:53:26;;;;;;;19.90;11.47;;;16.90;99.90;;;;;;1980732;71;26842;-90
2023/06/18 08:56:18;;;;;;;19.17;10.63;;;17.10;99.90;;;;;;2009792;70;25644;-91
2023/06/18 08:59:07;;;;;;;20.07;11.57;;;17.30;99.90;;;;;;2006420;70;25248;-91
2023/06/18 09:01:56;;;;;;;18.20;11.10;;;17.40;99.90;;;;;;2005631;70;25206;-91
2023/06/18 09:04:45;;;;;;;18.80;11.00;;;17.40;99.90;;;;;;2013155;70;25231;-91
2023/06/18 09:07:39;;;;;;;20.33;12.07;;;17.40;99.90;;;;;;1999501;70;25599;-91
2023/06/18 09:10:31;;;;;;;18.97;11.77;;;17.50;99.90;;;;;;2020310;70;25562;-91
2023/06/18 09:13:20;;;;;;;18.60;10.53;;;17.50;99.90;;;;;;2004969;70;25199;-91
2023/06/18 09:16:09;;;;;;;18.50;11.70;;;17.60;99.90;;;;;;2004394;70;26573;-90
2023/06/18 09:19:02;;;;;;;18.80;11.03;;;17.70;99.90;;;;;;2023168;70;25165;-90
2023/06/18 09:21:54;;;;;;;24.07;11.23;;;17.70;99.90;;;;;;2000466;70;25278;-90
2023/06/18 09:24:44;;;;;;;16.20;10.70;;;17.40;99.90;;;;;;1983582;70;25255;-91
2023/06/18 09:30:33;;;;;;;20.10;11.13;;;17.40;99.90;;;;;;1947354;72;26747;-90
2023/06/18 09:33:38;;;;;;;18.43;11.43;;;17.30;99.90;;;;;;1919440;73;25941;-90
2023/06/18 09:36:27;;;;;;;18.77;10.33;;;17.40;99.90;;;;;;1912913;73;25339;-90
2023/06/18 09:39:22;;;;;;;18.33;10.60;;;17.40;99.90;;;;;;1927720;73;25272;-90
2023/06/18 12:11:46;;;;;;;11.67;7.93;;;17.50;99.90;;;;;;1918513;74;25227;-90
2023/06/18 12:18:28;;;;;;;12.53;8.10;;;17.00;99.90;;;;;;1975760;71;25324;-90
2023/06/18 12:34:47;;;;;;;20.53;8.60;;;16.80;99.90;;;;;;1857906;73;27310;-89
2023/06/18 12:38:22;;;;;;;12.87;8.80;;;16.70;99.90;;;;;;1781666;79;25785;-89
2023/06/18 12:55:00;;;;;;;10.97;8.40;;;16.80;99.90;;;;;;1925035;74;26707;-90
2023/06/18 13:09:33;;;;;;;12.20;8.43;;;16.70;99.90;;;;;;1957467;71;26575;-90
2023/06/18 17:30:05;;;;;;;21.13;12.23;;;15.90;99.90;;;;;;2028177;69;27069;-90
2023/06/18 17:54:19;;;;;;;21.40;12.83;;;16.10;99.90;;;;;;1942700;72;27699;-90
2023/06/18 17:57:10;;;;;;;19.47;12.10;;;16.10;99.90;;;;;;1918216;73;25881;-90
2023/06/18 17:59:59;;;;;;;17.33;11.77;;;16.10;99.90;;;;;;1926716;73;25191;-90
2023/06/18 18:31:51;;;;;;;22.23;12.70;;;16.20;99.90;;;;;;1912898;73;25182;-90
2023/06/18 18:34:45;;;;;;;20.07;13.00;;;16.30;99.90;;;;;;1893812;73;25283;-90
2023/06/18 18:37:37;;;;;;;18.77;12.53;;;16.30;99.90;;;;;;1903041;75;25263;-90
2023/06/18 18:40:43;;;;;;;22.00;13.43;;;16.30;99.90;;;;;;1898706;72;25296;-91
2023/06/18 18:57:47;;;;;;;22.10;14.27;;;16.20;99.90;;;;;;1981588;72;27583;-90
2023/06/18 19:01:04;;;;;;;25.00;14.53;;;16.30;99.90;;;;;;1995602;72;25376;-90
2023/06/18 19:04:09;;;;;;;22.33;13.23;;;16.30;99.90;;;;;;1990453;72;25180;-90
2023/06/18 20:19:01;;;;;;;28.17;16.00;;;16.30;99.90;;;;;;1943511;72;27103;-90
2023/06/18 20:21:52;;;;;;;24.13;16.00;;;16.40;99.90;;;;;;1917007;73;25198;-90
2023/06/18 20:24:44;;;;;;;25.57;14.93;;;16.30;99.90;;;;;;1917340;73;25703;-89
2023/06/18 20:27:34;;;;;;;26.23;16.90;;;16.30;99.90;;;;;;1927626;73;25216;-91
2023/06/18 20:30:23;;;;;;;30.27;17.37;;;16.30;99.90;;;;;;1919717;73;25327;-92
2023/06/18 20:51:32;;;;;;;29.07;16.00;;;16.40;99.90;;;;;;1986978;71;27012;-90
2023/06/18 20:54:22;;;;;;;27.77;14.57;;;16.40;99.90;;;;;;1923352;73;25194;-91
2023/06/18 20:57:13;;;;;;;26.17;15.10;;;16.40;99.90;;;;;;1914747;72;25715;-91
2023/06/18 21:00:03;;;;;;;20.07;14.80;;;16.40;99.90;;;;;;1929308;72;25537;-90
2023/06/18 21:02:52;;;;;;;25.43;14.47;;;16.40;99.90;;;;;;1914193;73;25243;-91
2023/06/18 21:05:40;;;;;;;21.57;13.43;;;16.40;99.90;;;;;;1928995;73;25257;-90
2023/06/18 21:40:03;;;;;;;21.87;14.17;;;16.40;99.90;;;;;;1931171;73;26649;-91
2023/06/18 22:29:48;;;;;;;18.73;13.13;;;16.80;99.90;;;;;;1940761;72;28166;-91
2023/06/18 22:40:32;;;;;;;18.20;12.43;;;16.90;99.90;;;;;;1930419;73;25309;-93
2023/06/18 22:44:02;;;;;;;17.17;12.97;;;17.00;99.90;;;;;;1885281;75;25235;-93
